Time;durP1;ratioP1;P1;durP2;ratioP2;P2;SDS_P1;SDS_P2;PMS_P1;PMS_P2;Temp;Humidity;BMP_temperature;BMP_pressure;BME280_temperature;BME280_humidity;BME280_pressure;Samples;Min_cycle;Max_cycle;Signal;HPM_P1;HPM_P2
2020/12/09 00:01:30;;;;;;;28.87;20.40;;;;;;;;;;5029646;28;20194;-72
2020/12/09 00:04:00;;;;;;;29.48;18.50;;;;;;;;;;5033137;28;20780;-72
2020/12/09 00:06:27;;;;;;;28.42;19.77;;;;;;;;;;5031032;28;20217;-72
2020/12/09 00:08:55;;;;;;;36.97;21.73;;;;;;;;;;5028546;28;20257;-72
2020/12/09 00:11:21;;;;;;;32.72;21.30;;;;;;;;;;5031685;28;20603;-72
2020/12/09 00:13:47;;;;;;;33.70;20.05;;;;;;;;;;5030307;28;20178;-72
2020/12/09 00:16:13;;;;;;;29.80;21.17;;;;;;;;;;5024160;28;20598;-72
2020/12/09 00:18:39;;;;;;;26.58;18.88;;;;;;;;;;5026239;28;20479;-72
2020/12/09 00:21:05;;;;;;;29.77;22.73;;;;;;;;;;5031799;28;20213;-72
2020/12/09 00:23:33;;;;;;;30.85;22.60;;;;;;;;;;5028623;28;20618;-72
2020/12/09 00:26:02;;;;;;;33.30;19.98;;;;;;;;;;5032176;28;20201;-72
2020/12/09 00:28:30;;;;;;;32.67;23.35;;;;;;;;;;5028565;28;20182;-72
2020/12/09 00:30:56;;;;;;;32.35;22.77;;;;;;;;;;5031208;28;20577;-72
2020/12/09 00:33:22;;;;;;;34.40;19.40;;;;;;;;;;5029256;28;20220;-72
2020/12/09 00:35:48;;;;;;;31.63;21.57;;;;;;;;;;5027888;28;20229;-72
2020/12/09 00:38:14;;;;;;;34.83;21.80;;;;;;;;;;5029930;28;20425;-72
2020/12/09 00:40:43;;;;;;;35.65;21.77;;;;;;;;;;5029914;28;20858;-72
2020/12/09 00:43:11;;;;;;;29.23;20.70;;;;;;;;;;5017561;28;20178;-72
2020/12/09 00:45:37;;;;;;;33.35;22.40;;;;;;;;;;5028834;28;20208;-72
2020/12/09 00:48:03;;;;;;;33.15;22.70;;;;;;;;;;5031269;28;20182;-72
2020/12/09 00:50:29;;;;;;;36.50;22.13;;;;;;;;;;5029754;28;20277;-72
2020/12/09 00:52:55;;;;;;;30.17;21.08;;;;;;;;;;5030772;28;20735;-72
2020/12/09 00:55:21;;;;;;;29.98;19.25;;;;;;;;;;5031335;28;20206;-72
2020/12/09 00:57:48;;;;;;;33.42;21.67;;;;;;;;;;5029063;28;20476;-72
2020/12/09 01:00:14;;;;;;;34.28;20.90;;;;;;;;;;5030686;28;20321;-72
2020/12/09 01:02:40;;;;;;;30.58;19.83;;;;;;;;;;5029931;28;20201;-72
2020/12/09 01:05:08;;;;;;;30.13;21.38;;;;;;;;;;5030369;28;20737;-72
2020/12/09 01:07:34;;;;;;;29.17;20.60;;;;;;;;;;5024233;28;20290;-72
2020/12/09 01:10:02;;;;;;;29.75;20.42;;;;;;;;;;5031122;28;20182;-72
2020/12/09 01:12:28;;;;;;;31.90;20.75;;;;;;;;;;5030599;28;20716;-72
2020/12/09 01:14:56;;;;;;;25.95;17.63;;;;;;;;;;5030838;28;20189;-72
2020/12/09 01:17:22;;;;;;;33.13;19.60;;;;;;;;;;5028943;28;20312;-72
2020/12/09 01:19:48;;;;;;;27.70;18.17;;;;;;;;;;5030600;28;20251;-72
2020/12/09 01:22:14;;;;;;;28.60;19.27;;;;;;;;;;5028709;28;20827;-72
2020/12/09 01:24:42;;;;;;;24.50;18.52;;;;;;;;;;5012843;28;20790;-72
2020/12/09 01:27:08;;;;;;;28.60;18.40;;;;;;;;;;5028611;28;20206;-72
2020/12/09 01:29:34;;;;;;;25.35;18.80;;;;;;;;;;5028912;28;20206;-72
2020/12/09 01:32:01;;;;;;;28.95;21.38;;;;;;;;;;5029068;28;20561;-72
2020/12/09 01:34:27;;;;;;;29.17;19.50;;;;;;;;;;5030312;28;20634;-72
2020/12/09 01:36:53;;;;;;;26.60;18.75;;;;;;;;;;5028522;28;20218;-72
2020/12/09 01:39:20;;;;;;;23.83;19.00;;;;;;;;;;5031853;28;20629;-72
2020/12/09 01:41:46;;;;;;;28.50;19.10;;;;;;;;;;5028544;28;20186;-72
2020/12/09 01:44:12;;;;;;;27.92;19.88;;;;;;;;;;5028380;28;20205;-72
2020/12/09 01:46:39;;;;;;;23.60;18.55;;;;;;;;;;5029379;28;20471;-72
2020/12/09 01:49:05;;;;;;;29.35;21.73;;;;;;;;;;5028051;28;20675;-72
2020/12/09 01:51:31;;;;;;;31.88;19.25;;;;;;;;;;5029780;28;20210;-72
2020/12/09 01:53:59;;;;;;;26.55;18.63;;;;;;;;;;5030625;28;20708;-72
2020/12/09 01:56:26;;;;;;;28.90;19.63;;;;;;;;;;5028041;28;20615;-72
2020/12/09 01:58:53;;;;;;;32.28;22.15;;;;;;;;;;5029829;28;20528;-72
2020/12/09 02:01:19;;;;;;;26.02;20.30;;;;;;;;;;5027187;28;20190;-72
2020/12/09 02:03:48;;;;;;;27.27;18.88;;;;;;;;;;5022998;28;20270;-72
2020/12/09 02:06:16;;;;;;;35.92;23.25;;;;;;;;;;5025994;28;20276;-72
2020/12/09 02:08:42;;;;;;;30.48;21.15;;;;;;;;;;5028758;28;20218;-72
2020/12/09 02:11:08;;;;;;;28.77;20.38;;;;;;;;;;5028457;28;20213;-72
2020/12/09 02:13:36;;;;;;;30.52;20.35;;;;;;;;;;5029545;28;20178;-72
2020/12/09 02:16:02;;;;;;;26.17;19.10;;;;;;;;;;5029708;28;20201;-72
2020/12/09 02:18:28;;;;;;;31.13;20.27;;;;;;;;;;5027354;28;20298;-72
2020/12/09 02:20:54;;;;;;;26.67;20.43;;;;;;;;;;5027181;28;20449;-72
2020/12/09 02:23:20;;;;;;;31.90;20.75;;;;;;;;;;5022834;28;20491;-72
2020/12/09 02:25:48;;;;;;;27.83;20.30;;;;;;;;;;5028055;28;20206;-72
2020/12/09 02:28:14;;;;;;;25.80;19.52;;;;;;;;;;5029626;28;20441;-72
2020/12/09 02:30:40;;;;;;;26.67;20.10;;;;;;;;;;5030160;28;20258;-72
2020/12/09 02:33:06;;;;;;;34.25;22.65;;;;;;;;;;5026376;28;20485;-72
2020/12/09 02:35:34;;;;;;;29.27;21.80;;;;;;;;;;5019384;28;20210;-72
2020/12/09 02:38:00;;;;;;;31.45;22.70;;;;;;;;;;5029136;28;20440;-72
2020/12/09 02:40:26;;;;;;;31.67;21.80;;;;;;;;;;5023793;28;20182;-72
2020/12/09 02:42:52;;;;;;;27.67;22.15;;;;;;;;;;5029337;28;20192;-72
2020/12/09 02:45:18;;;;;;;35.03;24.70;;;;;;;;;;5029242;28;20202;-72
2020/12/09 02:47:44;;;;;;;35.75;25.13;;;;;;;;;;5026685;28;20560;-72
2020/12/09 02:50:10;;;;;;;31.40;22.20;;;;;;;;;;5028452;28;20179;-72
2020/12/09 02:52:36;;;;;;;33.38;24.58;;;;;;;;;;5028900;28;20522;-72
2020/12/09 02:55:02;;;;;;;32.27;22.70;;;;;;;;;;5029956;28;20174;-72
2020/12/09 02:57:28;;;;;;;33.83;22.55;;;;;;;;;;5024879;28;20542;-72
2020/12/09 02:59:54;;;;;;;34.30;24.10;;;;;;;;;;5029622;28;20186;-72
2020/12/09 03:02:20;;;;;;;38.47;25.03;;;;;;;;;;5029703;28;20439;-72
2020/12/09 03:04:46;;;;;;;31.13;23.07;;;;;;;;;;5020037;28;20456;-72
2020/12/09 03:07:12;;;;;;;33.75;23.13;;;;;;;;;;5029337;28;20964;-72
2020/12/09 03:09:38;;;;;;;37.10;24.53;;;;;;;;;;5033034;28;20186;-72
2020/12/09 03:12:05;;;;;;;34.47;23.60;;;;;;;;;;5028559;28;20480;-72
2020/12/09 03:14:31;;;;;;;33.38;23.95;;;;;;;;;;5031497;28;20437;-72
2020/12/09 03:16:57;;;;;;;34.90;24.13;;;;;;;;;;5030699;28;20587;-72
2020/12/09 03:19:23;;;;;;;35.05;22.05;;;;;;;;;;5032557;28;20919;-72
2020/12/09 03:21:49;;;;;;;29.80;21.33;;;;;;;;;;5033161;28;20265;-72
2020/12/09 03:24:15;;;;;;;34.20;23.27;;;;;;;;;;5024612;28;20444;-72
2020/12/09 03:26:41;;;;;;;31.80;24.30;;;;;;;;;;5026139;28;20471;-72
2020/12/09 03:29:11;;;;;;;35.35;23.00;;;;;;;;;;5029935;28;20452;-72
2020/12/09 03:31:37;;;;;;;32.03;23.05;;;;;;;;;;5030982;28;20209;-72
2020/12/09 03:34:03;;;;;;;33.27;22.83;;;;;;;;;;5027257;28;20285;-72
2020/12/09 03:36:29;;;;;;;34.93;24.27;;;;;;;;;;5034064;28;20522;-72
2020/12/09 03:38:55;;;;;;;37.00;23.33;;;;;;;;;;5032448;28;20467;-72
2020/12/09 03:41:21;;;;;;;31.43;21.93;;;;;;;;;;5032657;28;20429;-72
2020/12/09 03:43:46;;;;;;;28.23;21.70;;;;;;;;;;5031406;28;20772;-72
2020/12/09 03:46:13;;;;;;;37.37;25.60;;;;;;;;;;5032295;28;20464;-72
2020/12/09 03:48:39;;;;;;;35.45;22.75;;;;;;;;;;5029195;28;20797;-72
2020/12/09 03:51:05;;;;;;;31.80;24.45;;;;;;;;;;5030180;28;20222;-72
2020/12/09 03:53:34;;;;;;;35.70;23.83;;;;;;;;;;5031729;28;20186;-72
2020/12/09 03:56:00;;;;;;;33.97;21.40;;;;;;;;;;5021173;28;20854;-72
2020/12/09 03:58:28;;;;;;;33.50;21.73;;;;;;;;;;5031856;28;20269;-72
2020/12/09 04:00:54;;;;;;;32.10;23.65;;;;;;;;;;5031690;28;20451;-72
2020/12/09 04:03:22;;;;;;;33.90;25.27;;;;;;;;;;5029749;28;20515;-72
2020/12/09 04:05:49;;;;;;;38.45;25.98;;;;;;;;;;5030948;28;20238;-72
2020/12/09 04:08:15;;;;;;;33.55;24.40;;;;;;;;;;5027922;28;20181;-72
2020/12/09 04:10:41;;;;;;;49.30;26.60;;;;;;;;;;5028584;28;20191;-72
2020/12/09 04:13:07;;;;;;;38.65;24.73;;;;;;;;;;5024247;28;20437;-72
2020/12/09 04:15:33;;;;;;;37.97;23.80;;;;;;;;;;5027403;28;20198;-72
2020/12/09 04:17:59;;;;;;;47.17;28.23;;;;;;;;;;5026141;28;20447;-72
2020/12/09 04:20:25;;;;;;;46.90;26.27;;;;;;;;;;5029347;22;20227;-76
2020/12/09 04:22:51;;;;;;;49.45;29.73;;;;;;;;;;4990916;28;20961;-73
2020/12/09 04:25:16;;;;;;;42.53;26.57;;;;;;;;;;4993189;28;20175;-76
2020/12/09 04:27:42;;;;;;;49.53;29.50;;;;;;;;;;4986456;28;20453;-76
2020/12/09 04:30:11;;;;;;;48.40;28.43;;;;;;;;;;4985783;28;20495;-75
2020/12/09 04:32:36;;;;;;;48.40;28.85;;;;;;;;;;4972496;28;20473;-76
2020/12/09 04:35:04;;;;;;;51.20;28.93;;;;;;;;;;4977080;28;20322;-75
2020/12/09 04:37:29;;;;;;;44.85;29.27;;;;;;;;;;4974524;28;20936;-75
2020/12/09 04:39:56;;;;;;;53.03;31.40;;;;;;;;;;4980285;28;20332;-74
2020/12/09 04:42:23;;;;;;;56.13;30.20;;;;;;;;;;4988163;28;20809;-74
2020/12/09 04:44:56;;;;;;;51.25;29.42;;;;;;;;;;4989464;28;20585;-74
2020/12/09 04:47:29;;;;;;;54.30;30.75;;;;;;;;;;4977917;28;20763;-75
2020/12/09 04:50:03;;;;;;;47.10;29.00;;;;;;;;;;4978233;28;20223;-75
2020/12/09 04:52:43;;;;;;;51.67;29.77;;;;;;;;;;4987719;28;20211;-75
2020/12/09 04:55:10;;;;;;;56.97;30.95;;;;;;;;;;4973845;28;20180;-74
2020/12/09 04:57:39;;;;;;;54.22;31.60;;;;;;;;;;4984965;28;20186;-74
2020/12/09 05:00:06;;;;;;;49.00;31.02;;;;;;;;;;4973173;28;20294;-73
2020/12/09 05:02:42;;;;;;;42.03;28.20;;;;;;;;;;4972994;28;20845;-75
2020/12/09 05:05:09;;;;;;;47.35;29.83;;;;;;;;;;4979605;28;20190;-75
2020/12/09 05:07:36;;;;;;;44.25;28.45;;;;;;;;;;4981663;28;20262;-75
2020/12/09 05:10:05;;;;;;;49.08;30.92;;;;;;;;;;4987616;28;20236;-76
2020/12/09 05:12:40;;;;;;;57.05;32.47;;;;;;;;;;4966493;28;20213;-76
2020/12/09 05:15:06;;;;;;;42.40;28.77;;;;;;;;;;4986551;28;20176;-75
2020/12/09 05:17:34;;;;;;;44.70;28.33;;;;;;;;;;4978962;28;20701;-76
2020/12/09 05:20:04;;;;;;;51.60;29.42;;;;;;;;;;4978510;28;20688;-76
2020/12/09 05:22:31;;;;;;;42.70;27.42;;;;;;;;;;4979284;28;20234;-76
2020/12/09 05:24:57;;;;;;;44.08;26.50;;;;;;;;;;4987245;28;20195;-74
2020/12/09 05:27:24;;;;;;;44.85;28.27;;;;;;;;;;4990082;28;20200;-76
2020/12/09 05:29:51;;;;;;;44.40;27.60;;;;;;;;;;4982829;28;20203;-74
2020/12/09 05:32:17;;;;;;;43.17;28.20;;;;;;;;;;4985112;28;20215;-75
2020/12/09 05:34:43;;;;;;;47.28;28.42;;;;;;;;;;4988803;28;20194;-75
2020/12/09 05:37:11;;;;;;;43.38;27.85;;;;;;;;;;4978325;28;20223;-74
2020/12/09 05:39:51;;;;;;;42.63;30.00;;;;;;;;;;4972530;28;20268;-74
2020/12/09 05:42:18;;;;;;;44.17;29.30;;;;;;;;;;4986729;28;20190;-75
2020/12/09 05:44:46;;;;;;;43.33;26.98;;;;;;;;;;4976735;28;20179;-73
2020/12/09 05:47:13;;;;;;;42.55;29.23;;;;;;;;;;4979809;28;20199;-74
2020/12/09 05:49:40;;;;;;;48.35;27.17;;;;;;;;;;4980311;28;20176;-76
2020/12/09 05:52:06;;;;;;;46.00;28.08;;;;;;;;;;4984831;28;20637;-74
2020/12/09 05:54:33;;;;;;;40.72;27.60;;;;;;;;;;4983756;28;20192;-75
2020/12/09 05:57:02;;;;;;;51.88;29.73;;;;;;;;;;4972792;28;20219;-74
2020/12/09 05:59:38;;;;;;;45.92;29.85;;;;;;;;;;4983988;28;20171;-75
2020/12/09 06:02:08;;;;;;;46.40;28.35;;;;;;;;;;4977463;28;20194;-73
2020/12/09 06:04:47;;;;;;;44.08;28.88;;;;;;;;;;4984204;28;20243;-75
2020/12/09 06:07:14;;;;;;;43.35;26.80;;;;;;;;;;4986786;28;20209;-75
2020/12/09 06:09:40;;;;;;;40.60;29.15;;;;;;;;;;4976098;28;20188;-74
2020/12/09 06:12:06;;;;;;;47.50;30.00;;;;;;;;;;4983070;28;20214;-73
2020/12/09 06:14:35;;;;;;;43.10;28.05;;;;;;;;;;4987605;28;20187;-73
2020/12/09 06:17:01;;;;;;;42.65;29.17;;;;;;;;;;4984661;28;20188;-76
2020/12/09 06:19:27;;;;;;;44.80;28.25;;;;;;;;;;4989693;28;20237;-75
2020/12/09 06:21:59;;;;;;;41.58;28.40;;;;;;;;;;4987290;28;20285;-76
2020/12/09 06:24:25;;;;;;;40.83;28.15;;;;;;;;;;4985378;28;20183;-75
2020/12/09 06:26:51;;;;;;;44.27;29.10;;;;;;;;;;4982811;28;20267;-75
2020/12/09 06:29:24;;;;;;;41.00;28.42;;;;;;;;;;4991452;28;20513;-76
2020/12/09 06:32:00;;;;;;;40.38;28.17;;;;;;;;;;4986115;28;20616;-74
2020/12/09 06:34:26;;;;;;;45.47;28.27;;;;;;;;;;4972002;28;20183;-74
2020/12/09 06:37:11;;;;;;;40.33;25.83;;;;;;;;;;4974539;28;20235;-74
2020/12/09 06:39:39;;;;;;;38.40;28.50;;;;;;;;;;4972529;28;20526;-75
2020/12/09 06:42:07;;;;;;;46.33;29.17;;;;;;;;;;4979670;28;20214;-75
2020/12/09 06:44:45;;;;;;;42.80;27.77;;;;;;;;;;4989999;28;20203;-74
2020/12/09 06:47:13;;;;;;;45.70;29.20;;;;;;;;;;4985921;28;20184;-76
2020/12/09 06:49:41;;;;;;;39.55;26.35;;;;;;;;;;4985279;28;20294;-74
2020/12/09 06:52:11;;;;;;;41.47;28.50;;;;;;;;;;4990698;28;20207;-74
2020/12/09 06:54:37;;;;;;;37.60;26.33;;;;;;;;;;4978701;28;20180;-74
2020/12/09 06:57:16;;;;;;;41.50;25.85;;;;;;;;;;4976393;28;20212;-74
2020/12/09 06:59:47;;;;;;;36.08;24.75;;;;;;;;;;4992866;28;20622;-73
2020/12/09 07:02:28;;;;;;;41.15;27.52;;;;;;;;;;4994572;28;20266;-74
2020/12/09 07:04:54;;;;;;;40.15;24.73;;;;;;;;;;5000591;28;20217;-75
2020/12/09 07:07:27;;;;;;;37.23;25.37;;;;;;;;;;5014099;28;20183;-74
2020/12/09 07:09:53;;;;;;;31.45;23.50;;;;;;;;;;4983479;28;20502;-75
2020/12/09 07:12:20;;;;;;;38.58;22.70;;;;;;;;;;4975452;28;20200;-75
2020/12/09 07:15:04;;;;;;;33.55;23.98;;;;;;;;;;4975227;28;20180;-74
2020/12/09 07:17:32;;;;;;;37.55;24.42;;;;;;;;;;4994669;28;20186;-73
2020/12/09 07:19:57;;;;;;;34.88;24.77;;;;;;;;;;4994592;28;20621;-72
2020/12/09 07:22:24;;;;;;;37.17;25.30;;;;;;;;;;4977155;28;20279;-73
2020/12/09 07:24:51;;;;;;;38.20;24.10;;;;;;;;;;4986455;28;20545;-73
2020/12/09 07:27:18;;;;;;;34.97;25.90;;;;;;;;;;4993027;28;20773;-72
2020/12/09 07:29:46;;;;;;;34.05;23.67;;;;;;;;;;4993946;28;20211;-72
2020/12/09 07:32:19;;;;;;;40.22;26.70;;;;;;;;;;4992983;28;20694;-72
2020/12/09 07:34:49;;;;;;;32.42;24.30;;;;;;;;;;5002383;28;20179;-72
2020/12/09 07:37:19;;;;;;;38.05;26.60;;;;;;;;;;4977511;28;20248;-72
2020/12/09 07:39:47;;;;;;;39.78;27.17;;;;;;;;;;4975177;28;20224;-72
2020/12/09 07:42:13;;;;;;;54.00;26.48;;;;;;;;;;4974873;28;20177;-73
2020/12/09 07:44:43;;;;;;;36.72;25.73;;;;;;;;;;4974809;28;20578;-71
2020/12/09 07:47:10;;;;;;;34.15;25.27;;;;;;;;;;4974782;28;20187;-72
2020/12/09 07:49:36;;;;;;;40.72;25.40;;;;;;;;;;4988037;28;20262;-72
2020/12/09 07:52:22;;;;;;;33.25;23.92;;;;;;;;;;4988495;28;20218;-71
2020/12/09 07:54:51;;;;;;;37.55;23.60;;;;;;;;;;4975395;28;20794;-73
2020/12/09 07:57:17;;;;;;;34.10;23.52;;;;;;;;;;4974926;28;20207;-73
2020/12/09 07:59:42;;;;;;;36.80;25.10;;;;;;;;;;4974723;28;20730;-72
2020/12/09 08:02:21;;;;;;;32.03;22.63;;;;;;;;;;4974258;28;20888;-73
2020/12/09 08:05:06;;;;;;;35.08;23.88;;;;;;;;;;4988622;28;20438;-72
2020/12/09 08:07:35;;;;;;;38.05;22.25;;;;;;;;;;4990004;28;20183;-72
2020/12/09 08:10:04;;;;;;;30.42;22.50;;;;;;;;;;4992840;28;20729;-72
2020/12/09 08:12:33;;;;;;;40.70;25.17;;;;;;;;;;4989754;28;20204;-73
2020/12/09 08:15:00;;;;;;;38.70;25.23;;;;;;;;;;4977012;28;20176;-71
2020/12/09 08:17:28;;;;;;;35.58;23.50;;;;;;;;;;4985787;28;20194;-71
2020/12/09 08:20:07;;;;;;;33.28;23.67;;;;;;;;;;4993891;28;20211;-71
2020/12/09 08:22:53;;;;;;;30.52;22.15;;;;;;;;;;4974256;28;20180;-72
2020/12/09 08:25:19;;;;;;;31.92;22.55;;;;;;;;;;4992947;28;20183;-72
2020/12/09 08:27:46;;;;;;;27.73;21.02;;;;;;;;;;4993171;28;20661;-72
2020/12/09 08:30:20;;;;;;;35.10;24.15;;;;;;;;;;4993077;28;20235;-73
2020/12/09 08:33:03;;;;;;;34.55;23.05;;;;;;;;;;5002774;28;20286;-72
2020/12/09 08:35:31;;;;;;;31.63;24.20;;;;;;;;;;4992329;28;20226;-71
2020/12/09 08:37:58;;;;;;;36.35;25.35;;;;;;;;;;4985680;28;20190;-72
2020/12/09 08:40:26;;;;;;;35.53;23.90;;;;;;;;;;4986332;28;20206;-71
2020/12/09 08:42:53;;;;;;;33.53;23.13;;;;;;;;;;4993218;28;20211;-71
2020/12/09 08:45:19;;;;;;;37.05;25.10;;;;;;;;;;4992835;28;20180;-71
2020/12/09 08:47:45;;;;;;;35.97;24.00;;;;;;;;;;4993857;28;20187;-71
2020/12/09 08:50:11;;;;;;;41.05;27.15;;;;;;;;;;4989631;28;20218;-70
2020/12/09 08:52:39;;;;;;;43.17;26.60;;;;;;;;;;4972599;28;20238;-72
2020/12/09 08:55:05;;;;;;;40.08;27.23;;;;;;;;;;4972840;28;20176;-71
2020/12/09 08:57:33;;;;;;;36.97;24.85;;;;;;;;;;4973473;28;20172;-71
2020/12/09 08:59:59;;;;;;;43.60;28.13;;;;;;;;;;4973272;28;20621;-72
2020/12/09 09:02:25;;;;;;;42.25;30.58;;;;;;;;;;4987250;28;20207;-70
2020/12/09 09:04:51;;;;;;;47.42;27.48;;;;;;;;;;4992447;28;20266;-72
2020/12/09 09:07:17;;;;;;;37.13;28.53;;;;;;;;;;4989682;28;20770;-72
2020/12/09 09:09:43;;;;;;;43.30;30.52;;;;;;;;;;4977970;28;20458;-72
2020/12/09 09:12:10;;;;;;;43.33;27.02;;;;;;;;;;4994047;28;20229;-70
2020/12/09 09:14:36;;;;;;;46.08;30.15;;;;;;;;;;4991748;28;20210;-72
2020/12/09 09:17:02;;;;;;;42.25;27.80;;;;;;;;;;4992137;28;20250;-72
2020/12/09 09:19:28;;;;;;;37.42;25.00;;;;;;;;;;4991606;28;20179;-72
2020/12/09 09:21:54;;;;;;;38.37;24.90;;;;;;;;;;4989030;28;20584;-72
2020/12/09 09:24:20;;;;;;;40.65;25.08;;;;;;;;;;4992074;28;20403;-71
2020/12/09 09:26:46;;;;;;;43.40;28.70;;;;;;;;;;4990325;28;20219;-72
2020/12/09 09:29:12;;;;;;;37.85;25.95;;;;;;;;;;4991469;28;20194;-73
2020/12/09 09:31:38;;;;;;;36.75;26.02;;;;;;;;;;4987585;28;20207;-71
2020/12/09 09:34:10;;;;;;;36.63;25.80;;;;;;;;;;4991622;28;20176;-72
2020/12/09 09:36:36;;;;;;;37.35;24.77;;;;;;;;;;4981076;28;20946;-71
2020/12/09 09:39:02;;;;;;;40.47;27.27;;;;;;;;;;4972747;28;20833;-71
2020/12/09 09:41:28;;;;;;;34.72;23.25;;;;;;;;;;4972667;28;20621;-71
2020/12/09 09:43:54;;;;;;;33.47;24.60;;;;;;;;;;4979254;28;20286;-71
2020/12/09 09:46:23;;;;;;;38.07;25.30;;;;;;;;;;4984818;28;20814;-72
2020/12/09 09:48:49;;;;;;;39.42;26.50;;;;;;;;;;4972303;28;20432;-73
2020/12/09 09:51:17;;;;;;;39.35;26.95;;;;;;;;;;4972515;28;20215;-72
2020/12/09 09:53:43;;;;;;;37.25;24.52;;;;;;;;;;4989124;28;20274;-73
2020/12/09 09:56:09;;;;;;;34.37;24.23;;;;;;;;;;4975193;28;20196;-72
2020/12/09 09:58:35;;;;;;;35.50;22.90;;;;;;;;;;4972449;28;20404;-71
2020/12/09 10:01:01;;;;;;;33.37;23.93;;;;;;;;;;4980581;28;20203;-71
2020/12/09 10:03:27;;;;;;;31.48;23.20;;;;;;;;;;4980296;28;20502;-73
2020/12/09 10:22:28;;;;;;;37.30;26.15;;;;;;;;;;4993113;28;20274;-74
2020/12/09 10:24:54;;;;;;;31.77;22.63;;;;;;;;;;5001017;28;20194;-74
2020/12/09 10:27:20;;;;;;;32.80;23.98;;;;;;;;;;4989498;28;20218;-74
2020/12/09 10:29:46;;;;;;;30.85;21.15;;;;;;;;;;4982449;28;20176;-73
2020/12/09 10:32:12;;;;;;;35.00;22.90;;;;;;;;;;4986180;28;20200;-73
2020/12/09 10:34:40;;;;;;;33.88;24.70;;;;;;;;;;4972631;28;20180;-73
2020/12/09 10:37:11;;;;;;;33.45;24.33;;;;;;;;;;4975905;28;20192;-73
2020/12/09 10:39:40;;;;;;;30.80;21.58;;;;;;;;;;4989229;28;20176;-72
2020/12/09 10:42:06;;;;;;;30.98;22.30;;;;;;;;;;5027845;23;20230;-76
2020/12/09 10:44:32;;;;;;;33.63;22.75;;;;;;;;;;5009973;28;20209;-73
2020/12/09 10:47:01;;;;;;;32.97;23.57;;;;;;;;;;5009871;28;20186;-74
2020/12/09 10:49:32;;;;;;;31.40;23.17;;;;;;;;;;5006967;28;21159;-73
2020/12/09 10:51:58;;;;;;;37.28;26.33;;;;;;;;;;4995506;28;20202;-73
2020/12/09 10:54:24;;;;;;;37.75;24.35;;;;;;;;;;4991298;28;20176;-73
2020/12/09 10:56:50;;;;;;;38.67;25.57;;;;;;;;;;4990958;28;20258;-74
2020/12/09 10:59:17;;;;;;;36.70;25.42;;;;;;;;;;5005868;28;20430;-74
2020/12/09 11:01:43;;;;;;;36.60;25.38;;;;;;;;;;5009633;28;20191;-74
2020/12/09 11:04:09;;;;;;;37.97;26.27;;;;;;;;;;5009941;28;20179;-74
2020/12/09 11:06:37;;;;;;;42.73;26.13;;;;;;;;;;4997317;28;20356;-74
2020/12/09 11:09:06;;;;;;;44.80;27.98;;;;;;;;;;4991385;28;20546;-73
2020/12/09 11:11:33;;;;;;;34.97;25.08;;;;;;;;;;4993740;28;20195;-73
2020/12/09 11:13:59;;;;;;;37.17;27.02;;;;;;;;;;5009567;28;20240;-73
2020/12/09 11:16:25;;;;;;;33.42;25.75;;;;;;;;;;5009574;28;20206;-73
2020/12/09 11:18:52;;;;;;;33.60;24.35;;;;;;;;;;4998591;28;20685;-74
2020/12/09 11:21:22;;;;;;;36.17;24.52;;;;;;;;;;4994349;28;20682;-73
2020/12/09 11:23:50;;;;;;;27.98;20.52;;;;;;;;;;4990783;28;20194;-74
2020/12/09 11:26:17;;;;;;;31.58;22.23;;;;;;;;;;5005566;28;20612;-73
2020/12/09 11:28:43;;;;;;;32.80;21.75;;;;;;;;;;5009154;28;20645;-74
2020/12/09 11:31:10;;;;;;;33.60;23.73;;;;;;;;;;5010235;28;20213;-73
2020/12/09 11:33:36;;;;;;;33.20;24.08;;;;;;;;;;5005090;28;20285;-73
2020/12/09 11:36:04;;;;;;;32.03;23.35;;;;;;;;;;5004629;28;20267;-74
2020/12/09 11:38:30;;;;;;;32.25;24.33;;;;;;;;;;5012562;28;20738;-73
2020/12/09 11:40:56;;;;;;;34.58;24.80;;;;;;;;;;4999569;28;20830;-73
2020/12/09 11:43:25;;;;;;;38.22;23.73;;;;;;;;;;4994359;28;20229;-73
2020/12/09 11:45:52;;;;;;;38.85;24.95;;;;;;;;;;4994439;28;20836;-73
2020/12/09 11:48:18;;;;;;;37.65;24.23;;;;;;;;;;4994019;28;20184;-73
2020/12/09 11:50:44;;;;;;;39.00;28.23;;;;;;;;;;5007051;28;20183;-74
2020/12/09 11:53:10;;;;;;;37.20;26.30;;;;;;;;;;5012624;28;20194;-74
2020/12/09 11:55:36;;;;;;;37.40;25.25;;;;;;;;;;5003825;28;20434;-73
2020/12/09 11:58:06;;;;;;;37.70;25.75;;;;;;;;;;5002375;28;20927;-75
2020/12/09 12:00:32;;;;;;;39.80;25.25;;;;;;;;;;5008150;28;20182;-75
2020/12/09 12:02:58;;;;;;;41.10;27.27;;;;;;;;;;5001923;28;20684;-73
2020/12/09 12:05:26;;;;;;;41.17;28.80;;;;;;;;;;4996161;28;20434;-73
2020/12/09 12:07:52;;;;;;;33.45;25.40;;;;;;;;;;4998916;28;20179;-74
2020/12/09 12:10:18;;;;;;;39.25;25.02;;;;;;;;;;5010579;28;20171;-73
2020/12/09 12:12:47;;;;;;;42.60;26.27;;;;;;;;;;4995677;28;20412;-73
2020/12/09 12:15:19;;;;;;;34.35;21.70;;;;;;;;;;4993574;28;20415;-73
2020/12/09 12:17:45;;;;;;;34.63;24.73;;;;;;;;;;4995319;28;20189;-73
2020/12/09 12:20:11;;;;;;;38.00;24.90;;;;;;;;;;4999359;28;20262;-73
2020/12/09 12:22:37;;;;;;;28.60;21.57;;;;;;;;;;5010240;28;20450;-74
2020/12/09 12:25:03;;;;;;;36.10;24.38;;;;;;;;;;5011819;28;20419;-74
2020/12/09 12:27:29;;;;;;;35.63;24.75;;;;;;;;;;4993439;28;20207;-74
2020/12/09 12:29:55;;;;;;;38.67;26.27;;;;;;;;;;5005221;28;20689;-74
2020/12/09 12:32:21;;;;;;;33.77;22.80;;;;;;;;;;5007185;28;20475;-74
2020/12/09 12:34:47;;;;;;;34.23;22.10;;;;;;;;;;5010617;28;20442;-73
2020/12/09 12:37:13;;;;;;;32.70;22.27;;;;;;;;;;5009900;28;20425;-74
2020/12/09 12:39:39;;;;;;;38.97;23.07;;;;;;;;;;5010937;28;20502;-75
2020/12/09 12:42:07;;;;;;;29.30;21.35;;;;;;;;;;4998831;28;20462;-74
2020/12/09 12:44:35;;;;;;;35.80;23.20;;;;;;;;;;4997101;28;20206;-73
2020/12/09 12:47:01;;;;;;;28.23;20.98;;;;;;;;;;4992809;28;20219;-74
2020/12/09 12:49:29;;;;;;;32.10;21.67;;;;;;;;;;4994924;28;20203;-74
2020/12/09 12:51:58;;;;;;;28.48;20.52;;;;;;;;;;5004724;28;20202;-75
2020/12/09 12:54:27;;;;;;;32.50;21.15;;;;;;;;;;4997148;28;20230;-74
2020/12/09 12:56:56;;;;;;;30.70;21.83;;;;;;;;;;5009486;28;20337;-74
2020/12/09 12:59:22;;;;;;;35.63;22.65;;;;;;;;;;5011153;28;20229;-73
2020/12/09 13:01:48;;;;;;;31.73;22.40;;;;;;;;;;5010140;28;20203;-73
2020/12/09 13:04:14;;;;;;;32.58;21.45;;;;;;;;;;4992721;28;20454;-74
2020/12/09 13:06:40;;;;;;;26.60;20.47;;;;;;;;;;5005788;28;20262;-73
2020/12/09 13:09:06;;;;;;;30.90;21.77;;;;;;;;;;5011139;28;20414;-74
2020/12/09 13:11:31;;;;;;;27.23;19.07;;;;;;;;;;5002812;28;20541;-73
2020/12/09 13:13:59;;;;;;;31.43;21.07;;;;;;;;;;4992758;28;20524;-74
2020/12/09 13:16:25;;;;;;;31.05;20.98;;;;;;;;;;4992481;28;20418;-74
2020/12/09 13:18:51;;;;;;;26.63;20.27;;;;;;;;;;4991679;28;20191;-74
2020/12/09 13:21:17;;;;;;;30.02;21.20;;;;;;;;;;5000112;28;20441;-74
2020/12/09 13:23:45;;;;;;;26.23;20.05;;;;;;;;;;5008738;28;20269;-74
2020/12/09 13:26:11;;;;;;;27.52;20.42;;;;;;;;;;5004617;28;20561;-73
2020/12/09 13:28:37;;;;;;;25.17;18.42;;;;;;;;;;5010444;28;20175;-75
2020/12/09 13:31:03;;;;;;;25.40;19.30;;;;;;;;;;5004684;28;20218;-74
2020/12/09 13:33:31;;;;;;;29.63;24.10;;;;;;;;;;5007162;28;20260;-74
2020/12/09 13:35:59;;;;;;;26.95;19.33;;;;;;;;;;5010938;28;20541;-74
2020/12/09 13:38:25;;;;;;;30.13;20.02;;;;;;;;;;4994248;28;20168;-75
2020/12/09 13:40:51;;;;;;;22.42;19.20;;;;;;;;;;4994170;28;20217;-74
2020/12/09 13:43:17;;;;;;;30.02;20.90;;;;;;;;;;5011671;28;20708;-74
2020/12/09 13:45:43;;;;;;;25.53;19.17;;;;;;;;;;5007773;28;20205;-74
2020/12/09 13:48:09;;;;;;;32.33;18.87;;;;;;;;;;4991333;28;20788;-74
2020/12/09 13:50:35;;;;;;;28.23;19.87;;;;;;;;;;4992418;28;20493;-74
2020/12/09 13:53:01;;;;;;;29.80;20.20;;;;;;;;;;4991460;28;20525;-74
2020/12/09 13:55:26;;;;;;;31.13;20.07;;;;;;;;;;4996677;28;20482;-73
2020/12/09 13:57:52;;;;;;;31.73;21.10;;;;;;;;;;4992451;28;20459;-75
2020/12/09 14:00:18;;;;;;;27.08;19.02;;;;;;;;;;5002747;28;20423;-74
2020/12/09 14:02:45;;;;;;;30.45;20.73;;;;;;;;;;4996995;28;20292;-74
2020/12/09 14:05:14;;;;;;;27.88;21.33;;;;;;;;;;4991833;28;20404;-75
2020/12/09 14:07:40;;;;;;;29.05;19.60;;;;;;;;;;5009671;28;20257;-71
2020/12/09 14:10:08;;;;;;;29.70;20.60;;;;;;;;;;5011252;28;20262;-73
2020/12/09 14:12:34;;;;;;;25.48;19.35;;;;;;;;;;5010406;28;20438;-71
2020/12/09 14:15:00;;;;;;;27.40;18.83;;;;;;;;;;5006598;28;20171;-72
2020/12/09 14:17:27;;;;;;;24.77;18.77;;;;;;;;;;5005135;28;20261;-72
2020/12/09 14:19:55;;;;;;;26.92;19.27;;;;;;;;;;4992553;28;20177;-71
2020/12/09 14:22:23;;;;;;;29.48;19.05;;;;;;;;;;5006181;28;20222;-72
2020/12/09 14:24:49;;;;;;;31.70;21.10;;;;;;;;;;5002245;28;20171;-71
2020/12/09 14:27:18;;;;;;;36.63;23.33;;;;;;;;;;4991099;28;20238;-72
2020/12/09 14:29:44;;;;;;;32.88;21.33;;;;;;;;;;4995271;28;20426;-74
2020/12/09 14:32:10;;;;;;;30.27;19.70;;;;;;;;;;4999131;28;20207;-74
2020/12/09 14:34:36;;;;;;;30.23;20.17;;;;;;;;;;5007978;28;20461;-74